CSC8029 ZUCK-ZUNZ
Flight info
| Callsign | CSC8029 |
|---|---|
| Flight time | 1h 56m |
| Altitude | 36100 |
| Route | URGEG1Z URGEG W80 WFX B213 KADSA W16 ELNUN J554 UGPIT |
| Aircraft | A319/M-SDE3FGHIRWY/LB1 |
Departure
| Time | 2026-04-19 05:45 |
|---|---|
| Airport | Chongqing Jiangbei International Airport (ZUCK) |
Arrival
| Time | 2026-04-19 07:41 |
|---|---|
| Airport | Nyingchi Mainling Airport (ZUNZ) |
| Time | Latitude | Longitude | Altitude | Speed | Heading |
|---|---|---|---|---|---|
| 2026-04-19 04:39 | 29.71762 | 106.63645 | 1374 ft | 0 kts | 15° |
| 2026-04-19 05:37 | 29.71750 | 106.63641 | 1374 ft | 4 kts | 20° |
| 2026-04-19 05:37 | 29.71725 | 106.63629 | 1374 ft | 4 kts | 33° |
| 2026-04-19 05:37 | 29.71704 | 106.63609 | 1374 ft | 4 kts | 54° |
| 2026-04-19 05:38 | 29.71695 | 106.63584 | 1374 ft | 2 kts | 104° |
| 2026-04-19 05:38 | 29.71695 | 106.63581 | 1374 ft | 0 kts | 107° |
| 2026-04-19 05:40 | 29.71695 | 106.63584 | 1374 ft | 2 kts | 107° |
| 2026-04-19 05:40 | 29.71688 | 106.63609 | 1374 ft | 5 kts | 107° |
| 2026-04-19 05:40 | 29.71676 | 106.63657 | 1372 ft | 8 kts | 107° |
| 2026-04-19 05:41 | 29.71656 | 106.63732 | 1374 ft | 12 kts | 106° |
| 2026-04-19 05:41 | 29.71619 | 106.63826 | 1374 ft | 14 kts | 146° |
| 2026-04-19 05:41 | 29.71522 | 106.63805 | 1373 ft | 15 kts | 197° |
| 2026-04-19 05:41 | 29.71416 | 106.63768 | 1372 ft | 17 kts | 197° |
| 2026-04-19 05:42 | 29.71301 | 106.63727 | 1374 ft | 18 kts | 197° |
| 2026-04-19 05:42 | 29.71176 | 106.63683 | 1374 ft | 19 kts | 197° |
| 2026-04-19 05:42 | 29.71043 | 106.63637 | 1374 ft | 21 kts | 197° |
| 2026-04-19 05:42 | 29.70901 | 106.63588 | 1374 ft | 22 kts | 197° |
| 2026-04-19 05:43 | 29.70753 | 106.63536 | 1374 ft | 23 kts | 197° |
| 2026-04-19 05:43 | 29.70618 | 106.63489 | 1372 ft | 15 kts | 197° |
| 2026-04-19 05:43 | 29.70567 | 106.63538 | 1374 ft | 12 kts | 107° |
| 2026-04-19 05:43 | 29.70543 | 106.63634 | 1374 ft | 13 kts | 102° |
| 2026-04-19 05:44 | 29.70587 | 106.63692 | 1374 ft | 11 kts | 15° |
| 2026-04-19 05:44 | 29.70745 | 106.63746 | 1373 ft | 47 kts | 17° |
| 2026-04-19 05:44 | 29.71237 | 106.63917 | 1374 ft | 101 kts | 17° |
| 2026-04-19 05:44 | 29.72073 | 106.64207 | 1374 ft | 150 kts | 17° |
| 2026-04-19 05:45 | 29.73170 | 106.64587 | 1680 ft | 168 kts | 17° |
| 2026-04-19 05:45 | 29.74293 | 106.64972 | 2303 ft | 169 kts | 17° |
| 2026-04-19 05:45 | 29.75418 | 106.65360 | 2930 ft | 170 kts | 17° |
| 2026-04-19 05:45 | 29.76597 | 106.65769 | 3241 ft | 188 kts | 17° |
| 2026-04-19 05:46 | 29.77925 | 106.66232 | 3497 ft | 211 kts | 17° |
| 2026-04-19 05:46 | 29.79419 | 106.66753 | 3825 ft | 236 kts | 17° |
| 2026-04-19 05:46 | 29.81052 | 106.67320 | 4484 ft | 250 kts | 17° |
| 2026-04-19 05:46 | 29.82736 | 106.67903 | 5290 ft | 255 kts | 18° |
| 2026-04-19 05:47 | 29.84462 | 106.68478 | 6065 ft | 268 kts | 13° |
| 2026-04-19 05:47 | 29.86378 | 106.68415 | 6666 ft | 286 kts | 343° |
| 2026-04-19 05:47 | 29.88227 | 106.67508 | 7454 ft | 291 kts | 335° |
| 2026-04-19 05:47 | 29.90076 | 106.66505 | 8254 ft | 296 kts | 334° |
| 2026-04-19 05:48 | 29.91950 | 106.65480 | 9039 ft | 301 kts | 334° |
| 2026-04-19 05:48 | 29.93857 | 106.64444 | 9786 ft | 305 kts | 334° |
| 2026-04-19 05:48 | 29.95833 | 106.63374 | 10146 ft | 325 kts | 334° |
| 2026-04-19 05:48 | 29.97952 | 106.62225 | 10328 ft | 348 kts | 334° |
| 2026-04-19 05:49 | 30.00198 | 106.61007 | 10707 ft | 362 kts | 333° |
| 2026-04-19 05:49 | 30.02489 | 106.59765 | 11304 ft | 367 kts | 333° |
| 2026-04-19 05:49 | 30.04815 | 106.58503 | 11931 ft | 371 kts | 333° |
| 2026-04-19 05:49 | 30.07166 | 106.57231 | 12576 ft | 375 kts | 333° |
| 2026-04-19 05:50 | 30.09540 | 106.55945 | 13218 ft | 378 kts | 332° |
| 2026-04-19 05:50 | 30.11924 | 106.54648 | 13873 ft | 381 kts | 332° |
| 2026-04-19 05:50 | 30.14331 | 106.53334 | 14492 ft | 384 kts | 332° |
| 2026-04-19 05:50 | 30.16759 | 106.52009 | 15111 ft | 387 kts | 332° |
| 2026-04-19 05:51 | 30.19198 | 106.50679 | 15711 ft | 390 kts | 332° |
| 2026-04-19 05:51 | 30.21666 | 106.49334 | 16304 ft | 393 kts | 333° |
| 2026-04-19 05:51 | 30.24179 | 106.47968 | 16905 ft | 396 kts | 333° |
| 2026-04-19 05:51 | 30.26651 | 106.46621 | 17470 ft | 399 kts | 332° |
| 2026-04-19 05:52 | 30.29210 | 106.45225 | 18051 ft | 402 kts | 332° |
| 2026-04-19 05:52 | 30.31745 | 106.43844 | 18596 ft | 405 kts | 332° |
| 2026-04-19 05:52 | 30.34308 | 106.42444 | 19135 ft | 408 kts | 333° |
| 2026-04-19 05:52 | 30.36885 | 106.41037 | 19668 ft | 412 kts | 332° |
| 2026-04-19 05:53 | 30.39494 | 106.39612 | 20187 ft | 416 kts | 333° |
| 2026-04-19 05:53 | 30.42122 | 106.38176 | 20691 ft | 419 kts | 333° |
| 2026-04-19 05:53 | 30.44775 | 106.36721 | 21152 ft | 423 kts | 332° |
| 2026-04-19 05:53 | 30.47460 | 106.35244 | 21326 ft | 434 kts | 333° |
| 2026-04-19 05:54 | 30.50213 | 106.33727 | 21646 ft | 439 kts | 332° |
| 2026-04-19 05:54 | 30.52907 | 106.32039 | 22014 ft | 440 kts | 323° |
| 2026-04-19 05:54 | 30.55220 | 106.29737 | 22395 ft | 439 kts | 310° |
| 2026-04-19 05:54 | 30.57028 | 106.26904 | 22776 ft | 438 kts | 297° |
| 2026-04-19 05:55 | 30.58248 | 106.23681 | 23154 ft | 436 kts | 284° |
| 2026-04-19 05:55 | 30.58810 | 106.20235 | 23521 ft | 434 kts | 271° |
| 2026-04-19 05:55 | 30.58710 | 106.16742 | 23890 ft | 434 kts | 261° |
| 2026-04-19 05:55 | 30.58348 | 106.13255 | 24248 ft | 436 kts | 261° |
| 2026-04-19 05:56 | 30.57987 | 106.09760 | 24620 ft | 438 kts | 261° |
| 2026-04-19 05:56 | 30.57626 | 106.06238 | 24990 ft | 440 kts | 261° |
| 2026-04-19 05:56 | 30.57263 | 106.02704 | 25364 ft | 441 kts | 261° |
| 2026-04-19 05:56 | 30.56898 | 105.99158 | 25714 ft | 443 kts | 261° |
| 2026-04-19 05:57 | 30.56531 | 105.95608 | 26060 ft | 445 kts | 261° |
| 2026-04-19 05:57 | 30.56162 | 105.92033 | 26392 ft | 447 kts | 261° |
| 2026-04-19 05:57 | 30.55793 | 105.88452 | 26720 ft | 448 kts | 261° |
| 2026-04-19 05:57 | 30.55418 | 105.84854 | 27034 ft | 450 kts | 261° |
| 2026-04-19 05:58 | 30.55039 | 105.81246 | 27342 ft | 451 kts | 261° |
| 2026-04-19 05:58 | 30.54658 | 105.77636 | 27647 ft | 453 kts | 261° |
| 2026-04-19 05:58 | 30.54273 | 105.74000 | 27960 ft | 453 kts | 261° |
| 2026-04-19 05:58 | 30.53882 | 105.70321 | 28248 ft | 455 kts | 261° |
| 2026-04-19 05:59 | 30.53500 | 105.66724 | 28540 ft | 456 kts | 261° |
| 2026-04-19 05:59 | 30.53110 | 105.63074 | 28897 ft | 455 kts | 262° |
| 2026-04-19 05:59 | 30.52717 | 105.59392 | 29337 ft | 453 kts | 262° |
| 2026-04-19 05:59 | 30.52332 | 105.55776 | 29765 ft | 450 kts | 262° |
| 2026-04-19 06:00 | 30.51950 | 105.52188 | 30190 ft | 448 kts | 262° |
| 2026-04-19 06:00 | 30.51569 | 105.48609 | 30610 ft | 446 kts | 262° |
| 2026-04-19 06:00 | 30.51187 | 105.45048 | 31017 ft | 444 kts | 262° |
| 2026-04-19 06:00 | 30.50805 | 105.41501 | 31431 ft | 442 kts | 262° |
| 2026-04-19 06:01 | 30.50425 | 105.37977 | 31816 ft | 441 kts | 262° |
| 2026-04-19 06:01 | 30.50043 | 105.34448 | 32216 ft | 439 kts | 262° |
| 2026-04-19 06:01 | 30.49864 | 105.30934 | 32598 ft | 438 kts | 270° |
| 2026-04-19 06:01 | 30.50145 | 105.27430 | 32971 ft | 438 kts | 277° |
| 2026-04-19 06:02 | 30.50559 | 105.23939 | 33379 ft | 436 kts | 276° |
| 2026-04-19 06:02 | 30.50960 | 105.20507 | 33757 ft | 434 kts | 276° |
| 2026-04-19 06:02 | 30.51365 | 105.16997 | 34156 ft | 432 kts | 276° |
| 2026-04-19 06:02 | 30.51756 | 105.13555 | 34539 ft | 431 kts | 276° |
| 2026-04-19 06:03 | 30.52146 | 105.10105 | 34925 ft | 429 kts | 276° |
| 2026-04-19 06:03 | 30.52535 | 105.06674 | 35183 ft | 431 kts | 277° |
| 2026-04-19 06:03 | 30.52927 | 105.03221 | 35443 ft | 432 kts | 277° |
| 2026-04-19 06:03 | 30.53320 | 104.99767 | 35741 ft | 432 kts | 277° |
| 2026-04-19 06:04 | 30.53710 | 104.96320 | 35911 ft | 432 kts | 277° |
| 2026-04-19 06:04 | 30.54489 | 104.89433 | 35941 ft | 430 kts | 277° |
| 2026-04-19 06:05 | 30.55264 | 104.82561 | 35942 ft | 429 kts | 277° |
| 2026-04-19 06:05 | 30.55758 | 104.76788 | 35942 ft | 429 kts | 265° |
| 2026-04-19 06:06 | 30.55687 | 104.75648 | 35732 ft | 428 kts | 266° |
| 2026-04-19 06:07 | 30.55728 | 104.72152 | 35117 ft | 435 kts | 268° |
| 2026-04-19 06:07 | 30.55321 | 104.68686 | 35316 ft | 434 kts | 254° |
| 2026-04-19 06:07 | 30.54427 | 104.65344 | 35628 ft | 433 kts | 253° |
| 2026-04-19 06:07 | 30.53519 | 104.62029 | 35885 ft | 433 kts | 253° |
| 2026-04-19 06:08 | 30.52601 | 104.58702 | 35940 ft | 432 kts | 253° |
| 2026-04-19 06:08 | 30.50912 | 104.52028 | 35941 ft | 431 kts | 261° |
| 2026-04-19 06:09 | 30.50531 | 104.45109 | 35941 ft | 431 kts | 265° |
| 2026-04-19 06:09 | 30.49997 | 104.38191 | 35941 ft | 431 kts | 265° |
| 2026-04-19 06:10 | 30.49602 | 104.32612 | 35941 ft | 431 kts | 266° |
| 2026-04-19 06:10 | 30.49140 | 104.25682 | 35938 ft | 432 kts | 266° |
| 2026-04-19 06:11 | 30.48729 | 104.18735 | 35935 ft | 431 kts | 267° |
| 2026-04-19 06:11 | 30.48385 | 104.11788 | 35934 ft | 431 kts | 267° |
| 2026-04-19 06:12 | 30.47850 | 104.01380 | 35931 ft | 432 kts | 267° |
| 2026-04-19 06:12 | 30.47585 | 103.94455 | 35928 ft | 431 kts | 274° |
| 2026-04-19 06:13 | 30.48797 | 103.87677 | 35929 ft | 431 kts | 287° |
| 2026-04-19 06:13 | 30.50624 | 103.81065 | 35929 ft | 431 kts | 287° |
| 2026-04-19 06:14 | 30.52443 | 103.74433 | 35932 ft | 431 kts | 287° |
| 2026-04-19 06:14 | 30.54254 | 103.67801 | 35934 ft | 431 kts | 287° |
| 2026-04-19 06:15 | 30.56012 | 103.61173 | 35933 ft | 417 kts | 285° |
| 2026-04-19 06:15 | 30.56795 | 103.57987 | 35940 ft | 404 kts | 285° |
| 2026-04-19 06:15 | 30.57538 | 103.54876 | 35941 ft | 400 kts | 285° |
| 2026-04-19 06:16 | 30.59233 | 103.48662 | 35937 ft | 411 kts | 299° |
| 2026-04-19 06:16 | 30.61061 | 103.46077 | 35950 ft | 420 kts | 315° |
| 2026-04-19 06:16 | 30.63066 | 103.43584 | 35936 ft | 424 kts | 302° |
| 2026-04-19 06:17 | 30.65826 | 103.37448 | 35941 ft | 435 kts | 292° |
| 2026-04-19 06:17 | 30.68176 | 103.30953 | 35948 ft | 437 kts | 292° |
| 2026-04-19 06:18 | 30.70701 | 103.24590 | 35949 ft | 430 kts | 295° |
| 2026-04-19 06:18 | 30.73407 | 103.18390 | 35949 ft | 430 kts | 296° |
| 2026-04-19 06:19 | 30.76125 | 103.12214 | 35952 ft | 429 kts | 296° |
| 2026-04-19 06:19 | 30.78798 | 103.06007 | 35948 ft | 429 kts | 294° |
| 2026-04-19 06:20 | 30.80425 | 102.99400 | 35945 ft | 427 kts | 276° |
| 2026-04-19 06:20 | 30.80453 | 102.92494 | 35945 ft | 427 kts | 269° |
| 2026-04-19 06:21 | 30.80334 | 102.85556 | 35944 ft | 427 kts | 269° |
| 2026-04-19 06:21 | 30.80221 | 102.78692 | 35945 ft | 426 kts | 269° |
| 2026-04-19 06:22 | 30.80100 | 102.71764 | 35946 ft | 426 kts | 269° |
| 2026-04-19 06:22 | 30.79959 | 102.64871 | 35955 ft | 426 kts | 269° |
| 2026-04-19 06:23 | 30.79818 | 102.57972 | 35949 ft | 426 kts | 269° |
| 2026-04-19 06:23 | 30.79681 | 102.51076 | 35952 ft | 426 kts | 269° |
| 2026-04-19 06:24 | 30.79537 | 102.44191 | 35953 ft | 426 kts | 269° |
| 2026-04-19 06:24 | 30.79390 | 102.37309 | 35954 ft | 426 kts | 269° |
| 2026-04-19 06:25 | 30.79241 | 102.30420 | 35960 ft | 426 kts | 269° |
| 2026-04-19 06:25 | 30.79087 | 102.23537 | 35967 ft | 426 kts | 269° |
| 2026-04-19 06:26 | 30.78926 | 102.16658 | 35967 ft | 426 kts | 269° |
| 2026-04-19 06:26 | 30.78765 | 102.09776 | 35965 ft | 425 kts | 269° |
| 2026-04-19 06:27 | 30.78600 | 102.02894 | 35968 ft | 425 kts | 269° |
| 2026-04-19 06:27 | 30.78424 | 101.96020 | 35973 ft | 425 kts | 269° |
| 2026-04-19 06:28 | 30.78370 | 101.89157 | 35972 ft | 424 kts | 275° |
| 2026-04-19 06:28 | 30.78952 | 101.82340 | 35977 ft | 423 kts | 276° |
| 2026-04-19 06:29 | 30.79525 | 101.75487 | 35981 ft | 423 kts | 276° |
| 2026-04-19 06:29 | 30.80080 | 101.68713 | 35985 ft | 423 kts | 276° |
| 2026-04-19 06:30 | 30.80645 | 101.61858 | 35981 ft | 423 kts | 276° |
| 2026-04-19 06:30 | 30.81209 | 101.55044 | 35982 ft | 423 kts | 276° |
| 2026-04-19 06:31 | 30.81763 | 101.48222 | 35982 ft | 423 kts | 275° |
| 2026-04-19 06:31 | 30.82312 | 101.41422 | 35987 ft | 423 kts | 275° |
| 2026-04-19 06:32 | 30.82858 | 101.34609 | 35992 ft | 423 kts | 275° |
| 2026-04-19 06:32 | 30.83396 | 101.27794 | 35995 ft | 422 kts | 275° |
| 2026-04-19 06:33 | 30.83933 | 101.21010 | 35999 ft | 422 kts | 275° |
| 2026-04-19 06:33 | 30.84473 | 101.14205 | 36001 ft | 422 kts | 275° |
| 2026-04-19 06:34 | 30.84997 | 101.07400 | 36001 ft | 421 kts | 275° |
| 2026-04-19 06:34 | 30.85526 | 101.00605 | 36008 ft | 421 kts | 275° |
| 2026-04-19 06:35 | 30.86045 | 100.93815 | 36006 ft | 421 kts | 275° |
| 2026-04-19 06:35 | 30.86565 | 100.87030 | 36004 ft | 421 kts | 275° |
| 2026-04-19 06:36 | 30.87086 | 100.80243 | 36002 ft | 421 kts | 275° |
| 2026-04-19 06:36 | 30.87604 | 100.73455 | 36006 ft | 421 kts | 275° |
| 2026-04-19 06:37 | 30.88107 | 100.66676 | 36014 ft | 421 kts | 275° |
| 2026-04-19 06:37 | 30.88608 | 100.59883 | 36020 ft | 421 kts | 275° |
| 2026-04-19 06:38 | 30.89106 | 100.53061 | 36022 ft | 420 kts | 275° |
| 2026-04-19 06:38 | 30.89604 | 100.46290 | 36015 ft | 420 kts | 275° |
| 2026-04-19 06:39 | 30.90103 | 100.39526 | 36016 ft | 420 kts | 275° |
| 2026-04-19 06:39 | 30.90588 | 100.32752 | 36014 ft | 419 kts | 275° |
| 2026-04-19 06:40 | 30.91070 | 100.25988 | 36009 ft | 419 kts | 275° |
| 2026-04-19 06:40 | 30.91550 | 100.19224 | 36014 ft | 419 kts | 275° |
| 2026-04-19 06:41 | 30.92030 | 100.12461 | 36014 ft | 419 kts | 275° |
| 2026-04-19 06:41 | 30.92502 | 100.05687 | 36014 ft | 419 kts | 275° |
| 2026-04-19 06:42 | 30.92972 | 99.98922 | 36021 ft | 419 kts | 275° |
| 2026-04-19 06:42 | 30.93497 | 99.92163 | 36029 ft | 419 kts | 276° |
| 2026-04-19 06:43 | 30.93963 | 99.86521 | 36029 ft | 418 kts | 276° |
| 2026-04-19 06:43 | 30.94508 | 99.79780 | 36029 ft | 418 kts | 275° |
| 2026-04-19 06:44 | 30.95030 | 99.73033 | 36029 ft | 418 kts | 275° |
| 2026-04-19 06:44 | 30.95550 | 99.66297 | 36025 ft | 418 kts | 275° |
| 2026-04-19 06:45 | 30.96074 | 99.59555 | 36022 ft | 417 kts | 275° |
| 2026-04-19 06:45 | 30.96593 | 99.52826 | 36019 ft | 418 kts | 275° |
| 2026-04-19 06:46 | 30.97104 | 99.46076 | 36020 ft | 418 kts | 275° |
| 2026-04-19 06:46 | 30.97618 | 99.39331 | 36020 ft | 418 kts | 275° |
| 2026-04-19 06:47 | 30.98132 | 99.32567 | 36020 ft | 419 kts | 275° |
| 2026-04-19 06:47 | 30.98633 | 99.25820 | 36024 ft | 419 kts | 275° |
| 2026-04-19 06:48 | 30.99131 | 99.19055 | 36024 ft | 419 kts | 275° |
| 2026-04-19 06:48 | 30.99626 | 99.12294 | 36023 ft | 418 kts | 275° |
| 2026-04-19 06:49 | 31.00120 | 99.05543 | 36024 ft | 419 kts | 275° |
| 2026-04-19 06:49 | 31.00614 | 98.98737 | 36025 ft | 419 kts | 275° |
| 2026-04-19 06:50 | 31.01101 | 98.91966 | 36022 ft | 419 kts | 275° |
| 2026-04-19 06:50 | 31.01581 | 98.85196 | 36020 ft | 419 kts | 275° |
| 2026-04-19 06:51 | 31.02062 | 98.78418 | 36022 ft | 419 kts | 275° |
| 2026-04-19 06:51 | 31.02535 | 98.71655 | 36020 ft | 419 kts | 275° |
| 2026-04-19 06:52 | 31.03020 | 98.64895 | 36017 ft | 419 kts | 275° |
| 2026-04-19 06:52 | 31.03556 | 98.58121 | 36006 ft | 419 kts | 275° |
| 2026-04-19 06:53 | 31.04095 | 98.51350 | 36009 ft | 420 kts | 275° |
| 2026-04-19 06:53 | 31.04640 | 98.44555 | 36010 ft | 421 kts | 275° |
| 2026-04-19 06:54 | 31.05186 | 98.37755 | 36014 ft | 421 kts | 275° |
| 2026-04-19 06:54 | 31.05738 | 98.30953 | 36021 ft | 421 kts | 275° |
| 2026-04-19 06:55 | 31.06316 | 98.24170 | 36028 ft | 420 kts | 276° |
| 2026-04-19 06:55 | 31.06901 | 98.17407 | 36029 ft | 419 kts | 276° |
| 2026-04-19 06:56 | 31.07477 | 98.10637 | 36026 ft | 420 kts | 275° |
| 2026-04-19 06:56 | 31.08028 | 98.03859 | 36020 ft | 419 kts | 275° |
| 2026-04-19 06:57 | 31.08565 | 97.97088 | 36018 ft | 419 kts | 275° |
| 2026-04-19 06:57 | 31.09102 | 97.90307 | 36019 ft | 419 kts | 275° |
| 2026-04-19 06:58 | 31.09638 | 97.83540 | 36019 ft | 419 kts | 275° |
| 2026-04-19 06:58 | 31.10180 | 97.76724 | 36016 ft | 419 kts | 275° |
| 2026-04-19 06:59 | 31.10712 | 97.69959 | 36015 ft | 419 kts | 275° |
| 2026-04-19 06:59 | 31.11234 | 97.63183 | 36012 ft | 419 kts | 275° |
| 2026-04-19 07:00 | 31.11759 | 97.56402 | 36013 ft | 419 kts | 275° |
| 2026-04-19 07:00 | 31.12278 | 97.49634 | 36019 ft | 419 kts | 275° |
| 2026-04-19 07:01 | 31.12793 | 97.42868 | 36018 ft | 419 kts | 275° |
| 2026-04-19 07:01 | 31.13305 | 97.36090 | 36020 ft | 419 kts | 275° |
| 2026-04-19 07:02 | 31.13810 | 97.29329 | 36017 ft | 418 kts | 275° |
| 2026-04-19 07:02 | 31.14312 | 97.22565 | 36019 ft | 419 kts | 275° |
| 2026-04-19 07:03 | 31.14233 | 97.15786 | 36015 ft | 419 kts | 261° |
| 2026-04-19 07:03 | 31.12842 | 97.09175 | 36011 ft | 420 kts | 257° |
| 2026-04-19 07:04 | 31.11428 | 97.02557 | 36010 ft | 421 kts | 257° |
| 2026-04-19 07:04 | 31.10020 | 96.95924 | 36005 ft | 421 kts | 258° |
| 2026-04-19 07:05 | 31.08593 | 96.89250 | 36004 ft | 421 kts | 257° |
| 2026-04-19 07:05 | 31.07173 | 96.82676 | 36007 ft | 422 kts | 257° |
| 2026-04-19 07:06 | 31.05727 | 96.76005 | 36006 ft | 421 kts | 257° |
| 2026-04-19 07:06 | 31.04290 | 96.69373 | 36010 ft | 421 kts | 257° |
| 2026-04-19 07:07 | 31.02850 | 96.62752 | 36008 ft | 421 kts | 257° |
| 2026-04-19 07:07 | 31.01402 | 96.56118 | 36004 ft | 421 kts | 257° |
| 2026-04-19 07:08 | 30.99956 | 96.49503 | 36006 ft | 421 kts | 257° |
| 2026-04-19 07:08 | 30.98512 | 96.42890 | 36004 ft | 421 kts | 257° |
| 2026-04-19 07:09 | 30.97083 | 96.36279 | 36001 ft | 421 kts | 258° |
| 2026-04-19 07:09 | 30.95688 | 96.29657 | 36002 ft | 421 kts | 258° |
| 2026-04-19 07:10 | 30.94294 | 96.23041 | 36004 ft | 421 kts | 258° |
| 2026-04-19 07:10 | 30.92894 | 96.16427 | 36002 ft | 421 kts | 258° |
| 2026-04-19 07:11 | 30.91488 | 96.09820 | 35998 ft | 421 kts | 258° |
| 2026-04-19 07:11 | 30.90075 | 96.03211 | 35990 ft | 420 kts | 258° |
| 2026-04-19 07:12 | 30.88661 | 95.96614 | 35973 ft | 420 kts | 258° |
| 2026-04-19 07:12 | 30.87245 | 95.90020 | 35958 ft | 420 kts | 257° |
| 2026-04-19 07:13 | 30.85814 | 95.83383 | 35949 ft | 420 kts | 257° |
| 2026-04-19 07:13 | 30.84275 | 95.76817 | 35944 ft | 422 kts | 251° |
| 2026-04-19 07:14 | 30.81857 | 95.71884 | 35940 ft | 428 kts | 234° |
| 2026-04-19 07:14 | 30.76788 | 95.66265 | 35934 ft | 432 kts | 225° |
| 2026-04-19 07:15 | 30.72290 | 95.61624 | 35933 ft | 432 kts | 225° |
| 2026-04-19 07:16 | 30.66314 | 95.55450 | 35933 ft | 433 kts | 225° |
| 2026-04-19 07:16 | 30.61809 | 95.50810 | 35932 ft | 433 kts | 225° |
| 2026-04-19 07:17 | 30.57308 | 95.46173 | 35931 ft | 433 kts | 225° |
| 2026-04-19 07:17 | 30.52811 | 95.41547 | 35930 ft | 432 kts | 225° |
| 2026-04-19 07:17 | 30.50573 | 95.39244 | 35747 ft | 428 kts | 225° |
| 2026-04-19 07:18 | 30.48335 | 95.36949 | 35485 ft | 421 kts | 225° |
| 2026-04-19 07:18 | 30.46151 | 95.34711 | 35243 ft | 415 kts | 225° |
| 2026-04-19 07:18 | 30.44004 | 95.32512 | 34996 ft | 409 kts | 225° |
| 2026-04-19 07:18 | 30.41920 | 95.30381 | 34743 ft | 402 kts | 225° |
| 2026-04-19 07:19 | 30.39821 | 95.28229 | 34486 ft | 395 kts | 225° |
| 2026-04-19 07:19 | 30.37780 | 95.26135 | 34241 ft | 388 kts | 225° |
| 2026-04-19 07:19 | 30.35780 | 95.24084 | 33985 ft | 381 kts | 225° |
| 2026-04-19 07:19 | 30.33803 | 95.22061 | 33773 ft | 374 kts | 225° |
| 2026-04-19 07:20 | 30.31880 | 95.20094 | 33569 ft | 367 kts | 225° |
| 2026-04-19 07:20 | 30.29970 | 95.18142 | 33288 ft | 364 kts | 225° |
| 2026-04-19 07:20 | 30.28074 | 95.16206 | 32926 ft | 361 kts | 225° |
| 2026-04-19 07:20 | 30.26194 | 95.14290 | 32513 ft | 360 kts | 225° |
| 2026-04-19 07:21 | 30.24319 | 95.12379 | 32136 ft | 358 kts | 225° |
| 2026-04-19 07:21 | 30.22451 | 95.10472 | 31300 ft | 363 kts | 225° |
| 2026-04-19 07:21 | 30.20531 | 95.08506 | 30380 ft | 370 kts | 225° |
| 2026-04-19 07:21 | 30.18607 | 95.06540 | 29688 ft | 369 kts | 225° |
| 2026-04-19 07:22 | 30.16685 | 95.04587 | 29105 ft | 366 kts | 224° |
| 2026-04-19 07:22 | 30.14786 | 95.02661 | 28514 ft | 361 kts | 225° |
| 2026-04-19 07:22 | 30.12910 | 95.00757 | 27946 ft | 356 kts | 224° |
| 2026-04-19 07:22 | 30.11045 | 94.98898 | 27395 ft | 352 kts | 220° |
| 2026-04-19 07:23 | 30.08959 | 94.97427 | 26844 ft | 351 kts | 206° |
| 2026-04-19 07:23 | 30.06657 | 94.96523 | 26301 ft | 349 kts | 197° |
| 2026-04-19 07:23 | 30.04328 | 94.95821 | 25761 ft | 344 kts | 197° |
| 2026-04-19 07:23 | 30.02090 | 94.94919 | 25232 ft | 336 kts | 208° |
| 2026-04-19 07:24 | 30.00125 | 94.93521 | 24698 ft | 329 kts | 220° |
| 2026-04-19 07:24 | 29.98502 | 94.91711 | 24133 ft | 323 kts | 232° |
| 2026-04-19 07:24 | 29.97252 | 94.89576 | 23521 ft | 320 kts | 244° |
| 2026-04-19 07:24 | 29.96349 | 94.87239 | 22936 ft | 318 kts | 247° |
| 2026-04-19 07:25 | 29.95471 | 94.84913 | 22364 ft | 316 kts | 247° |
| 2026-04-19 07:25 | 29.94462 | 94.82668 | 21805 ft | 314 kts | 237° |
| 2026-04-19 07:25 | 29.93098 | 94.80721 | 21253 ft | 312 kts | 225° |
| 2026-04-19 07:25 | 29.91435 | 94.79120 | 20706 ft | 310 kts | 214° |
| 2026-04-19 07:26 | 29.89558 | 94.77939 | 20327 ft | 306 kts | 203° |
| 2026-04-19 07:26 | 29.87529 | 94.77210 | 20096 ft | 305 kts | 192° |
| 2026-04-19 07:26 | 29.85419 | 94.76952 | 19907 ft | 305 kts | 181° |
| 2026-04-19 07:26 | 29.83307 | 94.77165 | 19702 ft | 305 kts | 169° |
| 2026-04-19 07:27 | 29.81274 | 94.77847 | 19497 ft | 305 kts | 158° |
| 2026-04-19 07:27 | 29.79386 | 94.78975 | 19298 ft | 305 kts | 147° |
| 2026-04-19 07:27 | 29.77718 | 94.80522 | 19093 ft | 305 kts | 135° |
| 2026-04-19 07:27 | 29.76331 | 94.82370 | 18884 ft | 304 kts | 130° |
| 2026-04-19 07:28 | 29.74985 | 94.84206 | 18683 ft | 304 kts | 134° |
| 2026-04-19 07:28 | 29.73426 | 94.85868 | 18485 ft | 302 kts | 142° |
| 2026-04-19 07:28 | 29.71724 | 94.87270 | 18283 ft | 300 kts | 148° |
| 2026-04-19 07:28 | 29.69900 | 94.88430 | 18077 ft | 299 kts | 155° |
| 2026-04-19 07:29 | 29.67979 | 94.89328 | 17883 ft | 297 kts | 162° |
| 2026-04-19 07:29 | 29.65984 | 94.89940 | 17687 ft | 296 kts | 169° |
| 2026-04-19 07:29 | 29.63954 | 94.90260 | 17488 ft | 294 kts | 176° |
| 2026-04-19 07:29 | 29.61913 | 94.90291 | 17286 ft | 293 kts | 184° |
| 2026-04-19 07:30 | 29.59898 | 94.90033 | 17095 ft | 291 kts | 191° |
| 2026-04-19 07:30 | 29.57925 | 94.89496 | 16905 ft | 290 kts | 197° |
| 2026-04-19 07:30 | 29.56031 | 94.88713 | 16716 ft | 289 kts | 204° |
| 2026-04-19 07:30 | 29.54237 | 94.87667 | 16514 ft | 289 kts | 211° |
| 2026-04-19 07:31 | 29.52580 | 94.86378 | 16325 ft | 288 kts | 218° |
| 2026-04-19 07:31 | 29.51068 | 94.84873 | 16132 ft | 287 kts | 224° |
| 2026-04-19 07:31 | 29.49723 | 94.83196 | 15948 ft | 286 kts | 231° |
| 2026-04-19 07:31 | 29.48562 | 94.81349 | 15748 ft | 284 kts | 238° |
| 2026-04-19 07:32 | 29.47616 | 94.79361 | 15555 ft | 284 kts | 245° |
| 2026-04-19 07:32 | 29.46879 | 94.77256 | 15360 ft | 284 kts | 251° |
| 2026-04-19 07:32 | 29.46353 | 94.75083 | 15167 ft | 282 kts | 258° |
| 2026-04-19 07:32 | 29.46055 | 94.72856 | 14980 ft | 282 kts | 265° |
| 2026-04-19 07:33 | 29.45995 | 94.70803 | 14810 ft | 280 kts | 271° |
| 2026-04-19 07:33 | 29.46138 | 94.68728 | 14687 ft | 271 kts | 277° |
| 2026-04-19 07:33 | 29.46480 | 94.66648 | 14561 ft | 262 kts | 283° |
| 2026-04-19 07:33 | 29.46962 | 94.64569 | 14310 ft | 275 kts | 284° |
| 2026-04-19 07:34 | 29.47457 | 94.62433 | 14098 ft | 278 kts | 284° |
| 2026-04-19 07:34 | 29.47717 | 94.60259 | 13911 ft | 270 kts | 270° |
| 2026-04-19 07:34 | 29.47546 | 94.58154 | 13743 ft | 262 kts | 257° |
| 2026-04-19 07:34 | 29.46999 | 94.56196 | 13581 ft | 253 kts | 245° |
| 2026-04-19 07:35 | 29.46176 | 94.54465 | 13507 ft | 240 kts | 239° |
| 2026-04-19 07:35 | 29.45363 | 94.52867 | 13467 ft | 222 kts | 239° |
| 2026-04-19 07:35 | 29.44599 | 94.51364 | 13299 ft | 213 kts | 239° |
| 2026-04-19 07:35 | 29.43871 | 94.49923 | 13017 ft | 209 kts | 239° |
| 2026-04-19 07:36 | 29.43137 | 94.48479 | 12740 ft | 203 kts | 238° |
| 2026-04-19 07:36 | 29.42341 | 94.47200 | 12508 ft | 191 kts | 230° |
| 2026-04-19 07:36 | 29.41479 | 94.46105 | 12280 ft | 180 kts | 224° |
| 2026-04-19 07:36 | 29.40562 | 94.45156 | 12060 ft | 176 kts | 218° |
| 2026-04-19 07:37 | 29.39579 | 94.44331 | 11840 ft | 174 kts | 213° |
| 2026-04-19 07:37 | 29.38577 | 94.43568 | 11635 ft | 173 kts | 213° |
| 2026-04-19 07:37 | 29.37579 | 94.42811 | 11421 ft | 171 kts | 213° |
| 2026-04-19 07:37 | 29.36588 | 94.42057 | 11215 ft | 171 kts | 213° |
| 2026-04-19 07:38 | 29.35620 | 94.41265 | 10989 ft | 171 kts | 218° |
| 2026-04-19 07:38 | 29.34747 | 94.40350 | 10779 ft | 170 kts | 225° |
| 2026-04-19 07:38 | 29.33978 | 94.39325 | 10565 ft | 170 kts | 231° |
| 2026-04-19 07:38 | 29.33515 | 94.38602 | 10381 ft | 168 kts | 233° |
| 2026-04-19 07:40 | 29.33172 | 94.37952 | 10110 ft | 173 kts | 251° |
| 2026-04-19 07:40 | 29.32566 | 94.36806 | 9987 ft | 169 kts | 229° |
| 2026-04-19 07:40 | 29.31796 | 94.35787 | 9871 ft | 169 kts | 231° |
| 2026-04-19 07:41 | 29.31105 | 94.34702 | 9727 ft | 168 kts | 234° |
| 2026-04-19 07:41 | 29.30482 | 94.33695 | 9697 ft | 134 kts | 234° |
| 2026-04-19 07:41 | 29.30106 | 94.33095 | 9687 ft | 71 kts | 234° |
| 2026-04-19 07:41 | 29.29972 | 94.32820 | 9680 ft | 23 kts | 301° |
| 2026-04-19 07:42 | 29.30067 | 94.32747 | 9682 ft | 13 kts | 338° |
| 2026-04-19 07:42 | 29.30142 | 94.32829 | 9685 ft | 19 kts | 55° |
| 2026-04-19 07:42 | 29.30232 | 94.32973 | 9686 ft | 25 kts | 54° |
| 2026-04-19 07:42 | 29.30342 | 94.33151 | 9692 ft | 30 kts | 55° |
| 2026-04-19 07:43 | 29.30441 | 94.33312 | 9695 ft | 22 kts | 55° |
| 2026-04-19 07:43 | 29.30540 | 94.33473 | 9694 ft | 20 kts | 54° |
| 2026-04-19 07:43 | 29.30612 | 94.33543 | 9694 ft | 13 kts | 338° |
| 2026-04-19 07:43 | 29.30692 | 94.33505 | 9690 ft | 10 kts | 29° |
| 2026-04-19 07:44 | 29.30732 | 94.33554 | 9689 ft | 7 kts | 358° |
| 2026-04-19 07:44 | 29.30766 | 94.33530 | 9688 ft | 0 kts | 327° |